createdAt,value
2023-02-08T00:00:44.049Z,82.59
2023-02-08T00:03:16.909Z,82.73
2023-02-08T00:05:49.685Z,82.78
2023-02-08T00:08:22.351Z,82.72
2023-02-08T00:10:54.861Z,82.57
2023-02-08T00:13:28.257Z,82.44
2023-02-08T00:16:00.891Z,82.76
2023-02-08T00:18:33.735Z,82.63
2023-02-08T00:21:12.591Z,82.65
2023-02-08T00:23:45.984Z,82.77
2023-02-08T00:26:18.453Z,82.56
2023-02-08T00:28:50.850Z,82.32
2023-02-08T00:31:23.590Z,82.33
2023-02-08T00:33:57.007Z,82.50
2023-02-08T00:36:30.742Z,82.70
2023-02-08T00:39:03.479Z,82.68
2023-02-08T00:41:36.297Z,82.62
2023-02-08T00:44:09.106Z,82.93
2023-02-08T00:46:42.600Z,83.11
2023-02-08T00:49:15.658Z,83.04
2023-02-08T00:51:49.708Z,83.02
2023-02-08T00:54:23.100Z,83.12
2023-02-08T00:56:55.678Z,83.14
2023-02-08T00:59:29.419Z,83.12
2023-02-08T01:02:02.170Z,83.16
2023-02-08T01:04:34.811Z,83.28
2023-02-08T01:07:08.018Z,83.66
2023-02-08T01:09:42.672Z,83.94
2023-02-08T01:12:17.202Z,84.11
2023-02-08T01:14:49.877Z,84.43
2023-02-08T01:17:22.537Z,84.49
2023-02-08T01:19:55.032Z,84.68
2023-02-08T01:22:29.853Z,84.97
2023-02-08T01:25:02.394Z,85.10
2023-02-08T01:27:35.411Z,85.22
2023-02-08T01:30:09.034Z,85.10
2023-02-08T01:32:41.326Z,85.43
2023-02-08T01:35:13.798Z,85.69
2023-02-08T01:37:46.353Z,86.24
2023-02-08T01:40:19.657Z,86.29
2023-02-08T01:42:52.062Z,86.60
2023-02-08T01:45:32.389Z,86.90
2023-02-08T01:48:13.057Z,86.99
2023-02-08T01:50:50.854Z,87.02
2023-02-08T01:53:23.628Z,87.14
2023-02-08T01:55:59.991Z,87.45
2023-02-08T01:58:49.813Z,88.01
2023-02-08T02:01:22.310Z,88.15
2023-02-08T02:03:55.194Z,88.09
2023-02-08T02:09:41.903Z,88.25
2023-02-08T02:12:14.503Z,88.52
2023-02-08T02:14:47.489Z,88.58
2023-02-08T02:17:20.898Z,88.68
2023-02-08T02:20:18.010Z,88.53
2023-02-08T02:23:24.325Z,88.68
2023-02-08T02:26:27.084Z,88.68
2023-02-08T02:29:29.539Z,88.56
2023-02-08T02:32:24.463Z,88.52
2023-02-08T02:35:13.695Z,88.38
2023-02-08T02:38:30.551Z,88.33
2023-02-08T02:41:46.887Z,88.58
2023-02-08T02:44:45.046Z,88.74
2023-02-08T02:47:37.432Z,88.74
2023-02-08T02:50:38.910Z,88.75
2023-02-08T02:53:23.188Z,88.92
2023-02-08T02:56:09.279Z,88.72
2023-02-08T02:58:42.642Z,88.70
2023-02-08T03:01:15.831Z,88.72
2023-02-08T03:03:48.521Z,88.42
2023-02-08T03:06:28.425Z,88.35
2023-02-08T03:09:32.774Z,88.25
2023-02-08T03:13:00.336Z,88.50
2023-02-08T03:15:55.636Z,88.23
2023-02-08T03:18:41.970Z,87.95
2023-02-08T03:21:20.312Z,87.80
2023-02-08T03:23:57.897Z,88.03
2023-02-08T03:26:53.914Z,88.01
2023-02-08T03:29:43.080Z,88.05
2023-02-08T03:32:55.341Z,88.33
2023-02-08T03:35:41.092Z,88.57
2023-02-08T03:38:27.979Z,89.00
2023-02-08T03:41:01.655Z,89.21
2023-02-08T03:44:00.325Z,89.60
2023-02-08T03:46:36.637Z,89.67
2023-02-08T03:49:12.358Z,89.77
2023-02-08T03:51:44.815Z,89.57
2023-02-08T03:54:23.948Z,89.53
2023-02-08T03:57:27.685Z,89.90
2023-02-08T04:00:19.439Z,90.06
2023-02-08T04:02:57.152Z,89.70
2023-02-08T04:05:30.000Z,89.55
2023-02-08T04:08:02.719Z,89.59
2023-02-08T04:10:35.313Z,89.64
2023-02-08T04:13:08.350Z,89.67
2023-02-08T04:15:40.775Z,89.78
2023-02-08T04:18:13.709Z,89.93
2023-02-08T04:20:46.289Z,90.06
2023-02-08T04:26:04.561Z,90.17
2023-02-08T04:28:37.078Z,90.30
2023-02-08T04:31:09.656Z,90.28
2023-02-08T04:33:42.954Z,90.41
2023-02-08T04:36:15.959Z,90.42
2023-02-08T04:38:48.611Z,90.34
2023-02-08T04:41:21.086Z,90.46
2023-02-08T04:43:53.623Z,90.41
2023-02-08T04:46:26.258Z,90.48
2023-02-08T04:48:59.124Z,90.57
2023-02-08T04:51:32.049Z,90.60
2023-02-08T04:54:04.796Z,91.03
2023-02-08T04:56:38.706Z,90.77
2023-02-08T04:59:11.510Z,90.57
2023-02-08T05:01:44.063Z,90.59
2023-02-08T05:04:16.762Z,90.80
2023-02-08T05:06:49.322Z,90.71
2023-02-08T05:09:22.676Z,90.64
2023-02-08T05:11:55.126Z,90.46
2023-02-08T05:14:27.568Z,90.51
2023-02-08T05:17:00.186Z,90.60
2023-02-08T05:19:32.977Z,90.58
2023-02-08T05:22:05.517Z,90.60
2023-02-08T05:24:38.574Z,90.69
2023-02-08T05:27:11.136Z,90.62
2023-02-08T05:29:43.672Z,90.44
2023-02-08T05:32:16.199Z,90.59
2023-02-08T05:34:48.670Z,90.52
2023-02-08T05:37:21.428Z,90.41
2023-02-08T05:39:54.597Z,90.34
2023-02-08T05:42:27.471Z,90.11
2023-02-08T05:44:59.901Z,89.95
2023-02-08T05:47:32.719Z,89.77
2023-02-08T05:50:05.432Z,89.43
2023-02-08T05:52:38.044Z,89.52
2023-02-08T05:55:11.266Z,89.59
2023-02-08T05:57:43.823Z,89.15
2023-02-08T06:00:17.554Z,88.37
2023-02-08T06:02:50.333Z,88.19
2023-02-08T06:05:22.750Z,87.42
2023-02-08T06:07:55.141Z,86.19
2023-02-08T06:10:28.060Z,84.82
2023-02-08T06:13:01.635Z,82.87
2023-02-08T06:15:34.074Z,80.85
2023-02-08T06:18:06.528Z,78.99
2023-02-08T06:20:40.186Z,77.12
2023-02-08T06:23:24.004Z,74.94
2023-02-08T06:25:56.642Z,71.56
2023-02-08T06:28:29.460Z,69.77
2023-02-08T06:31:02.114Z,68.00
2023-02-08T06:33:35.037Z,66.05
2023-02-08T06:36:08.276Z,64.73
2023-02-08T06:38:40.998Z,63.47
2023-02-08T06:41:13.618Z,63.06
2023-02-08T06:43:46.129Z,61.92
2023-02-08T06:46:18.902Z,60.34
2023-02-08T06:48:51.598Z,58.36
2023-02-08T06:51:24.081Z,57.44
2023-02-08T06:53:56.960Z,56.65
2023-02-08T06:56:29.772Z,55.19
2023-02-08T06:59:02.505Z,53.72
2023-02-08T07:01:35.253Z,51.98
2023-02-08T07:04:08.124Z,50.94
2023-02-08T07:06:40.618Z,50.19
2023-02-08T07:09:13.081Z,49.97
2023-02-08T07:11:46.030Z,49.36
2023-02-08T07:14:18.793Z,48.37
2023-02-08T07:16:53.572Z,46.97
2023-02-08T07:19:27.178Z,46.26
2023-02-08T07:22:06.011Z,45.29
2023-02-08T07:24:42.088Z,44.54
2023-02-08T07:27:15.490Z,44.48
2023-02-08T07:29:47.954Z,44.25
2023-02-08T07:32:20.495Z,43.85
2023-02-08T07:34:54.706Z,43.03
2023-02-08T07:37:27.924Z,42.45
2023-02-08T07:40:00.512Z,42.02
2023-02-08T07:42:34.054Z,41.50
2023-02-08T07:45:27.188Z,40.91
2023-02-08T07:48:00.110Z,40.33
2023-02-08T07:50:33.090Z,39.94
2023-02-08T07:53:06.429Z,39.41
2023-02-08T07:55:38.923Z,38.85
2023-02-08T07:58:11.279Z,38.65
2023-02-08T08:00:43.881Z,38.49
2023-02-08T08:03:16.631Z,37.92
2023-02-08T08:05:53.015Z,38.31
2023-02-08T08:08:24.519Z,37.88
2023-02-08T08:10:57.522Z,37.54
2023-02-08T08:13:30.800Z,37.11
2023-02-08T08:16:03.512Z,36.77
2023-02-08T08:18:36.490Z,36.52
2023-02-08T08:21:09.103Z,36.25
2023-02-08T08:23:41.797Z,35.91
2023-02-08T08:26:19.910Z,35.56
2023-02-08T08:28:52.386Z,35.44
2023-02-08T08:31:25.461Z,35.32
2023-02-08T08:33:58.221Z,35.06
2023-02-08T08:36:31.163Z,34.70
2023-02-08T08:39:03.591Z,34.64
2023-02-08T08:41:37.362Z,34.42
2023-02-08T08:44:09.964Z,34.45
2023-02-08T08:46:44.256Z,34.00
2023-02-08T08:49:17.131Z,33.97
2023-02-08T08:51:49.570Z,34.03
2023-02-08T08:54:22.157Z,33.92
2023-02-08T08:56:54.657Z,33.78
2023-02-08T08:59:27.178Z,33.98
2023-02-08T09:01:59.527Z,33.76
2023-02-08T09:04:32.031Z,33.75
2023-02-08T09:07:04.555Z,33.68
2023-02-08T09:09:37.208Z,33.57
2023-02-08T09:12:09.527Z,33.53
2023-02-08T09:14:42.531Z,33.30
2023-02-08T09:17:14.918Z,33.36
2023-02-08T09:19:47.528Z,32.80
2023-02-08T09:22:20.428Z,32.56
2023-02-08T09:24:55.026Z,32.30
2023-02-08T09:27:27.629Z,32.16
2023-02-08T09:30:00.675Z,32.10
2023-02-08T09:32:34.416Z,31.83
2023-02-08T09:35:07.790Z,31.81
2023-02-08T09:37:40.706Z,31.88
2023-02-08T09:40:23.539Z,31.75
2023-02-08T09:43:21.628Z,32.21
2023-02-08T09:46:01.551Z,31.91
2023-02-08T09:48:40.189Z,31.83
2023-02-08T09:51:42.723Z,31.73
2023-02-08T09:54:20.290Z,31.90
2023-02-08T09:56:52.865Z,31.50
2023-02-08T09:59:28.598Z,30.83
2023-02-08T10:02:29.590Z,30.85
2023-02-08T10:05:09.798Z,31.19
2023-02-08T10:07:42.792Z,31.47
2023-02-08T10:10:22.652Z,31.43
2023-02-08T10:13:20.556Z,31.49
2023-02-08T10:16:10.908Z,31.56
2023-02-08T10:18:53.695Z,31.63
2023-02-08T10:21:49.132Z,31.21
2023-02-08T10:24:44.388Z,31.08
2023-02-08T10:27:49.496Z,30.79
2023-02-08T10:31:00.485Z,30.88
2023-02-08T10:34:12.469Z,30.84
2023-02-08T10:36:45.384Z,30.78
2023-02-08T10:39:27.600Z,30.52
2023-02-08T10:42:00.837Z,30.34
2023-02-08T10:44:43.706Z,30.03
2023-02-08T10:47:40.880Z,30.19
2023-02-08T10:50:30.228Z,30.17
2023-02-08T10:53:02.959Z,30.20
2023-02-08T10:55:37.346Z,30.09
2023-02-08T10:58:20.332Z,29.99
2023-02-08T11:00:52.784Z,29.72
2023-02-08T11:03:27.738Z,29.67
2023-02-08T11:06:00.652Z,29.32
2023-02-08T11:08:35.736Z,29.30
2023-02-08T11:11:10.164Z,29.06
2023-02-08T11:13:46.693Z,28.96
2023-02-08T11:16:27.182Z,29.51
2023-02-08T11:19:09.023Z,29.38
2023-02-08T11:21:42.487Z,29.43
2023-02-08T11:24:28.634Z,29.25
2023-02-08T11:27:02.707Z,29.19
2023-02-08T11:29:35.883Z,29.36
2023-02-08T11:32:20.773Z,29.29
2023-02-08T11:34:53.298Z,29.41
2023-02-08T11:37:29.385Z,29.39
2023-02-08T11:40:02.127Z,29.50
2023-02-08T11:42:43.971Z,29.50
2023-02-08T11:45:26.378Z,29.05
2023-02-08T11:47:58.869Z,29.52
2023-02-08T11:50:38.999Z,29.23
2023-02-08T11:53:29.117Z,29.40
2023-02-08T11:56:14.870Z,29.34
2023-02-08T11:59:08.012Z,29.56
2023-02-08T12:01:42.702Z,29.37
2023-02-08T12:04:17.533Z,29.68
2023-02-08T12:07:12.311Z,29.50
2023-02-08T12:10:21.361Z,30.27
2023-02-08T12:13:22.855Z,31.63
2023-02-08T12:16:32.835Z,33.38
2023-02-08T12:19:25.594Z,34.73
2023-02-08T12:22:05.985Z,36.39
2023-02-08T12:24:45.222Z,37.62
2023-02-08T12:27:52.814Z,38.87
2023-02-08T12:30:46.336Z,39.50
2023-02-08T12:33:50.662Z,40.79
2023-02-08T12:36:39.844Z,41.38
2023-02-08T12:39:59.306Z,42.20
2023-02-08T12:42:48.003Z,42.90
2023-02-08T12:45:43.445Z,43.77
2023-02-08T12:48:36.983Z,44.44
2023-02-08T12:51:16.817Z,44.91
2023-02-08T12:53:53.898Z,45.34
2023-02-08T12:56:31.944Z,45.90
2023-02-08T12:59:13.463Z,46.08
2023-02-08T13:01:47.636Z,46.70
2023-02-08T13:04:27.697Z,47.29
2023-02-08T13:07:04.830Z,48.36
2023-02-08T13:09:55.282Z,48.73
2023-02-08T13:12:53.564Z,48.90
2023-02-08T16:24:53.484Z,64.57
2023-02-08T16:27:31.339Z,64.36
2023-02-08T16:30:03.845Z,64.40
2023-02-08T16:32:39.042Z,64.41
2023-02-08T16:35:25.244Z,64.57
2023-02-08T16:38:02.145Z,64.64
2023-02-08T16:40:51.759Z,64.76
2023-02-08T16:43:29.678Z,64.91
2023-02-08T16:46:39.311Z,65.05
2023-02-08T16:49:11.751Z,65.07
2023-02-08T16:51:45.262Z,65.27
2023-02-08T16:54:19.940Z,65.46
2023-02-08T16:56:54.089Z,65.56
2023-02-08T16:59:26.955Z,65.59
2023-02-08T17:01:59.650Z,65.66
2023-02-08T17:04:32.533Z,65.74
2023-02-08T17:07:05.079Z,65.63
2023-02-08T17:09:39.569Z,65.61
2023-02-08T17:15:10.899Z,65.75
2023-02-08T17:17:43.331Z,65.87
2023-02-08T17:20:29.259Z,65.92
2023-02-08T17:23:03.482Z,66.26
2023-02-08T17:25:36.843Z,66.14
2023-02-08T17:28:18.760Z,65.99
2023-02-08T17:30:53.375Z,65.88
2023-02-08T17:33:27.743Z,65.70
2023-02-08T17:36:00.660Z,65.82
2023-02-08T17:38:33.695Z,65.74
2023-02-08T17:41:08.274Z,65.66
2023-02-08T17:43:39.978Z,65.86
2023-02-08T17:46:16.099Z,65.90
2023-02-08T17:48:48.704Z,65.94
2023-02-08T17:51:23.622Z,66.12
2023-02-08T17:53:56.191Z,66.14
2023-02-08T17:56:32.967Z,65.94
2023-02-08T17:59:05.645Z,65.88
2023-02-08T18:01:39.913Z,66.16
2023-02-08T18:04:13.568Z,66.44
2023-02-08T18:06:46.845Z,66.60
2023-02-08T18:09:19.228Z,66.50
2023-02-08T18:11:51.886Z,66.36
2023-02-08T18:14:24.519Z,66.30
2023-02-08T18:16:59.046Z,66.41
2023-02-08T18:19:31.546Z,66.62
2023-02-08T18:22:05.136Z,66.81
2023-02-08T18:24:38.483Z,66.97
2023-02-08T18:27:11.525Z,67.17
2023-02-08T18:29:44.123Z,67.16
2023-02-08T18:32:18.458Z,67.13
2023-02-08T18:34:51.312Z,67.09
2023-02-08T18:37:23.754Z,67.15
2023-02-08T18:39:56.086Z,67.23
2023-02-08T18:42:28.556Z,67.17
2023-02-08T18:45:01.571Z,66.96
2023-02-08T18:47:39.733Z,66.94
2023-02-08T18:50:12.358Z,67.03
2023-02-08T18:52:44.938Z,67.26
2023-02-08T18:55:17.845Z,67.45
2023-02-08T18:57:50.849Z,67.55
2023-02-08T19:00:23.716Z,67.73
2023-02-08T19:02:56.323Z,68.04
2023-02-08T19:05:28.784Z,68.38
2023-02-08T19:08:01.727Z,68.74
2023-02-08T19:10:38.997Z,68.99
2023-02-08T19:13:11.938Z,68.76
2023-02-08T19:15:46.029Z,68.86
2023-02-08T19:18:19.945Z,69.07
2023-02-08T19:20:52.816Z,69.21
2023-02-08T19:23:25.124Z,69.29
2023-02-08T19:25:57.524Z,69.42
2023-02-08T19:28:32.233Z,69.50
2023-02-08T19:33:54.589Z,69.44
2023-02-08T19:36:30.315Z,69.33
2023-02-08T19:39:02.791Z,69.13
2023-02-08T19:41:39.176Z,69.04
2023-02-08T19:44:14.937Z,69.29
2023-02-08T19:46:52.849Z,69.50
2023-02-08T19:49:27.406Z,69.81
2023-02-08T19:51:59.861Z,69.77
2023-02-08T19:54:32.559Z,69.96
2023-02-08T19:57:05.765Z,70.28
2023-02-08T19:59:39.983Z,70.45
2023-02-08T20:02:15.272Z,70.64
2023-02-08T20:04:47.708Z,70.78
2023-02-08T20:07:20.181Z,71.39
2023-02-08T20:09:53.404Z,71.41
2023-02-08T20:12:27.107Z,71.54
2023-02-08T20:15:00.475Z,71.74
2023-02-08T20:17:35.050Z,71.83
2023-02-08T20:20:30.174Z,71.70
2023-02-08T20:23:06.987Z,71.47
2023-02-08T20:25:38.457Z,71.44
2023-02-08T20:28:10.815Z,71.45
2023-02-08T20:30:46.420Z,71.30
2023-02-08T20:33:19.709Z,71.28
2023-02-08T20:35:52.069Z,71.45
2023-02-08T20:38:24.520Z,71.64
2023-02-08T20:41:06.952Z,71.70
2023-02-08T20:43:39.603Z,71.77
2023-02-08T20:46:19.759Z,71.56
2023-02-08T20:48:52.808Z,71.28
2023-02-08T20:51:26.179Z,70.94
2023-02-08T20:53:59.864Z,70.59
2023-02-08T20:56:35.732Z,70.52
2023-02-08T20:59:11.687Z,70.54
2023-02-08T21:01:45.754Z,70.55
2023-02-08T21:04:19.863Z,70.44
2023-02-08T21:06:52.760Z,70.34
2023-02-08T21:09:25.154Z,70.09
2023-02-08T21:11:57.485Z,70.09
2023-02-08T21:14:29.966Z,70.10
2023-02-08T21:17:03.977Z,70.10
2023-02-08T21:19:37.223Z,70.17
2023-02-08T21:22:10.419Z,70.20
2023-02-08T21:24:43.592Z,70.29
2023-02-08T21:27:16.065Z,70.32
2023-02-08T21:29:52.714Z,70.67
2023-02-08T21:32:25.549Z,70.58
2023-02-08T21:34:58.116Z,70.42
2023-02-08T21:37:30.501Z,70.42
2023-02-08T21:40:02.936Z,70.48
2023-02-08T21:42:36.797Z,70.35
2023-02-08T21:45:09.992Z,70.25
2023-02-08T21:47:42.480Z,70.23
2023-02-08T21:50:28.418Z,70.25
2023-02-08T21:53:19.550Z,70.27
2023-02-08T21:55:52.081Z,70.35
2023-02-08T21:58:24.664Z,70.38
2023-02-08T22:00:57.195Z,70.59
2023-02-08T22:03:31.515Z,70.34
